Time;durP1;ratioP1;P1;durP2;ratioP2;P2;SDS_P1;SDS_P2;PMS_P1;PMS_P2;Temp;Humidity;BMP_temperature;BMP_pressure;BME280_temperature;BME280_humidity;BME280_pressure;Samples;Min_cycle;Max_cycle;Signal;HPM_P1;HPM_P2
2022/01/16 00:04:06;;;;;;;64.03;27.90;;;;;;;-0.06;100.00;101719.16;4879641;29;20060;-68
2022/01/16 00:06:36;;;;;;;51.90;27.63;;;;;;;-0.02;100.00;101696.25;4879146;29;20056;-68
2022/01/16 00:09:05;;;;;;;52.50;27.15;;;;;;;-0.06;100.00;101719.16;4878615;29;20061;-68
2022/01/16 00:11:37;;;;;;;58.63;26.95;;;;;;;-0.04;100.00;101700.16;4879067;29;20064;-68
2022/01/16 00:14:06;;;;;;;47.30;25.58;;;;;;;0.07;100.00;101680.88;4879703;29;20067;-68
2022/01/16 00:16:34;;;;;;;57.92;28.83;;;;;;;0.08;100.00;101677.16;4878878;29;20053;-68
2022/01/16 00:19:03;;;;;;;53.03;26.98;;;;;;;0.08;100.00;101670.91;4877596;29;20522;-68
2022/01/16 00:21:37;;;;;;;50.97;26.65;;;;;;;0.01;100.00;101695.06;4878917;29;20057;-68
2022/01/16 00:24:08;;;;;;;50.88;26.23;;;;;;;-0.08;100.00;101672.75;4878923;29;20061;-68
2022/01/16 00:26:37;;;;;;;50.33;27.38;;;;;;;-0.05;100.00;101715.44;4879342;29;20061;-68
2022/01/16 00:29:07;;;;;;;54.47;29.13;;;;;;;-0.06;100.00;101719.16;4878585;29;20049;-68
2022/01/16 00:31:40;;;;;;;50.38;27.33;;;;;;;-0.09;100.00;101708.78;4878779;29;20045;-68
2022/01/16 00:34:10;;;;;;;57.28;27.98;;;;;;;-0.13;100.00;101699.38;4878780;29;20045;-67
2022/01/16 00:36:38;;;;;;;53.22;28.00;;;;;;;-0.11;100.00;101686.56;4878644;29;20057;-68
2022/01/16 00:39:07;;;;;;;54.22;26.23;;;;;;;-0.09;100.00;101699.84;4878510;29;20052;-68
2022/01/16 00:41:35;;;;;;;52.00;26.77;;;;;;;-0.17;100.00;101676.53;4878717;29;20064;-68
2022/01/16 00:44:04;;;;;;;48.33;26.05;;;;;;;-0.15;100.00;101671.78;4878487;29;20068;-67
2022/01/16 00:46:32;;;;;;;49.78;26.00;;;;;;;-0.21;100.00;101680.59;4878494;29;20049;-68
2022/01/16 00:49:02;;;;;;;51.67;27.33;;;;;;;-0.21;100.00;101699.41;4878464;29;20056;-68
2022/01/16 00:51:30;;;;;;;52.50;27.55;;;;;;;-0.13;100.00;101745.13;4866446;29;20048;-68
2022/01/16 00:53:58;;;;;;;49.83;25.63;;;;;;;-0.19;100.00;101729.69;4878596;29;20069;-68
2022/01/16 00:56:26;;;;;;;45.25;22.05;;;;;;;-0.15;100.00;101731.00;4878846;29;20045;-67
2022/01/16 00:58:54;;;;;;;53.75;26.13;;;;;;;-0.22;100.00;101725.50;4878324;29;20068;-68
2022/01/16 01:01:22;;;;;;;46.03;22.98;;;;;;;-0.18;100.00;101670.31;4878308;29;20060;-68
2022/01/16 01:03:50;;;;;;;46.83;24.70;;;;;;;-0.14;100.00;101638.50;4878288;29;20045;-68
2022/01/16 01:06:20;;;;;;;56.00;24.48;;;;;;;-0.18;100.00;101623.75;4878206;29;20506;-68
2022/01/16 01:08:48;;;;;;;44.15;22.00;;;;;;;-0.21;100.00;101638.38;4878202;29;20408;-68
2022/01/16 01:11:23;;;;;;;41.53;22.38;;;;;;;-0.26;100.00;101634.59;4878312;29;20547;-68
2022/01/16 01:16:48;;;;;;;42.78;20.90;;;;;;;-0.43;100.00;101654.34;4878357;29;20049;-68
2022/01/16 01:19:18;;;;;;;40.78;21.52;;;;;;;-0.38;100.00;101678.03;4866777;29;20142;-68
2022/01/16 01:21:47;;;;;;;42.15;20.92;;;;;;;-0.37;100.00;101697.69;4878181;29;20057;-68
2022/01/16 01:24:15;;;;;;;36.72;20.10;;;;;;;-0.36;100.00;101707.44;4878194;29;20057;-68
2022/01/16 01:26:58;;;;;;;36.58;19.40;;;;;;;-0.31;100.00;101723.88;4878806;29;20045;-68
2022/01/16 01:29:29;;;;;;;41.63;18.80;;;;;;;-0.37;100.00;101722.75;4866013;29;20060;-68
2022/01/16 01:31:57;;;;;;;45.65;20.88;;;;;;;-0.36;100.00;101737.88;4877603;29;20064;-68
2022/01/16 01:34:25;;;;;;;38.35;18.30;;;;;;;-0.46;100.00;101713.91;4881705;29;20045;-68
2022/01/16 01:36:53;;;;;;;37.13;17.13;;;;;;;-0.30;100.00;101712.94;4881853;29;20056;-68
2022/01/16 01:39:23;;;;;;;34.03;16.95;;;;;;;-0.34;100.00;101722.38;4882054;29;20512;-67
2022/01/16 01:41:55;;;;;;;30.45;15.35;;;;;;;-0.33;100.00;101728.59;4881976;29;20064;-68
2022/01/16 01:52:43;;;;;;;27.08;14.23;;;;;;;-0.34;100.00;101738.53;4881825;29;20053;-68
2022/01/16 01:55:11;;;;;;;24.30;14.02;;;;;;;-0.32;100.00;101752.66;4882304;29;20063;-68
2022/01/16 01:57:39;;;;;;;26.75;13.57;;;;;;;-0.38;100.00;101745.28;4881754;29;20407;-68
2022/01/16 02:00:08;;;;;;;23.02;13.57;;;;;;;-0.43;100.00;101736.91;4881191;29;20065;-68
2022/01/16 02:02:58;;;;;;;26.15;12.93;;;;;;;-0.42;100.00;101735.91;4881766;29;20053;-68
2022/01/16 02:05:27;;;;;;;29.83;13.60;;;;;;;-0.38;100.00;101747.97;4879732;29;20060;-68
2022/01/16 02:07:55;;;;;;;19.95;12.77;;;;;;;-0.44;100.00;101737.94;4881280;29;20064;-68
2022/01/16 02:10:24;;;;;;;25.80;12.35;;;;;;;-0.48;100.00;101726.69;4881039;29;20488;-68
2022/01/16 02:13:00;;;;;;;24.38;13.65;;;;;;;-0.50;100.00;101728.72;4881467;29;20053;-68
2022/01/16 02:32:46;;;;;;;23.77;11.77;;;;;;;-0.32;100.00;101736.50;4881747;29;20057;-68
2022/01/16 02:34:46;;;;;;;;;;;;;;;-0.35;100.00;101739.53;4880558;29;20060;-68
2022/01/16 02:37:16;;;;;;;24.38;13.13;;;;;;;-0.41;100.00;101732.19;4881275;29;20299;-68
2022/01/16 02:39:50;;;;;;;22.08;12.27;;;;;;;-0.45;100.00;101720.09;4880993;29;20080;-68
2022/01/16 02:42:19;;;;;;;25.33;14.40;;;;;;;-0.46;100.00;101713.06;4880928;29;20053;-68
2022/01/16 02:44:50;;;;;;;26.98;13.52;;;;;;;-0.60;100.00;101691.28;4879681;29;20056;-68
2022/01/16 02:47:20;;;;;;;29.80;14.25;;;;;;;-0.65;100.00;101677.53;4880868;29;20064;-68
2022/01/16 02:49:48;;;;;;;27.42;15.88;;;;;;;-0.59;100.00;101695.66;4880617;29;20135;-67
2022/01/16 02:52:19;;;;;;;31.33;15.25;;;;;;;-0.59;100.00;101698.34;4879582;29;20049;-68
2022/01/16 02:54:50;;;;;;;31.20;16.30;;;;;;;-0.59;100.00;101692.97;4880588;29;20053;-68
2022/01/16 02:57:21;;;;;;;30.73;16.25;;;;;;;-0.63;100.00;101688.94;4880243;29;20076;-68
2022/01/16 02:59:51;;;;;;;27.23;15.20;;;;;;;-0.65;100.00;101674.84;4880288;29;20064;-68
2022/01/16 03:02:21;;;;;;;30.90;15.70;;;;;;;-0.68;100.00;101673.34;4880870;29;20052;-68
2022/01/16 03:04:50;;;;;;;29.90;15.52;;;;;;;-0.65;100.00;101666.78;4880479;29;20049;-68
2022/01/16 03:07:18;;;;;;;30.95;16.17;;;;;;;-0.61;100.00;101672.66;4880296;29;20064;-68
2022/01/16 03:11:00;;;;;;;28.30;15.40;;;;;;;-0.66;100.00;101661.59;4880629;29;20060;-68
2022/01/16 03:12:54;;;;;;;28.92;14.75;;;;;;;-0.69;100.00;101655.56;4879263;29;20065;-68
2022/01/16 03:15:23;;;;;;;33.28;15.65;;;;;;;-0.73;100.00;101654.22;4880478;29;20049;-68
2022/01/16 03:23:18;;;;;;;21.38;12.05;;;;;;;-0.79;100.00;101659.50;4880343;29;20056;-68
2022/01/16 03:25:47;;;;;;;23.65;13.43;;;;;;;-0.79;100.00;101657.63;4879870;29;20369;-68
2022/01/16 03:28:15;;;;;;;24.98;14.90;;;;;;;-0.83;100.00;101654.47;4879948;29;20061;-68
2022/01/16 03:30:43;;;;;;;23.90;12.20;;;;;;;-0.75;100.00;101671.56;4880108;29;20056;-68
2022/01/16 03:33:12;;;;;;;23.35;12.27;;;;;;;-0.78;100.00;101653.91;4880280;29;20056;-68
2022/01/16 03:35:41;;;;;;;20.38;11.48;;;;;;;-0.66;100.00;101661.59;4879921;29;20063;-68
2022/01/16 03:38:09;;;;;;;25.38;11.80;;;;;;;-0.63;100.00;101670.13;4879715;29;20057;-68
2022/01/16 03:40:38;;;;;;;25.20;12.77;;;;;;;-0.66;100.00;101659.75;4879821;29;20493;-68
2022/01/16 03:43:14;;;;;;;24.20;12.45;;;;;;;-0.49;100.00;101673.91;4880107;29;20629;-67
2022/01/16 03:45:46;;;;;;;22.35;11.40;;;;;;;-0.50;100.00;101661.47;4879948;29;20049;-67
2022/01/16 03:48:16;;;;;;;19.92;12.13;;;;;;;-0.53;100.00;101667.22;4879730;29;20079;-67
2022/01/16 03:50:44;;;;;;;28.58;12.55;;;;;;;-0.57;100.00;101668.59;4879609;29;20072;-68
2022/01/16 03:53:12;;;;;;;24.35;13.27;;;;;;;-0.72;100.00;101664.00;4885994;29;20049;-67
2022/01/16 03:55:40;;;;;;;21.90;13.82;;;;;;;-0.66;100.00;101659.75;4885729;29;20069;-68
2022/01/16 03:58:08;;;;;;;27.00;14.38;;;;;;;-0.72;100.00;101655.06;4879489;29;20060;-68
2022/01/16 04:00:36;;;;;;;30.42;13.82;;;;;;;-0.66;100.00;101658.88;4879430;29;20072;-68
2022/01/16 04:03:04;;;;;;;23.60;13.55;;;;;;;-0.65;100.00;101665.97;4877941;29;20049;-68
2022/01/16 04:05:32;;;;;;;27.52;13.48;;;;;;;-0.73;100.00;101653.41;4879413;29;20053;-67
2022/01/16 04:08:02;;;;;;;24.80;13.48;;;;;;;-0.76;100.00;101648.38;4879290;29;20052;-68
2022/01/16 04:10:31;;;;;;;28.83;14.30;;;;;;;-0.72;100.00;101657.75;4879247;29;20049;-68
2022/01/16 04:12:59;;;;;;;27.58;14.15;;;;;;;-0.63;100.00;101651.31;4879291;29;20052;-68
2022/01/16 04:15:33;;;;;;;28.05;14.35;;;;;;;-0.61;100.00;101643.06;4879378;29;20053;-68
2022/01/16 04:18:02;;;;;;;;;;;;;;;-0.62;100.00;101646.78;4879573;29;20072;-68
2022/01/16 04:20:31;;;;;;;25.20;14.05;;;;;;;-0.66;100.00;101646.31;4879531;29;19924;-67
2022/01/16 04:22:59;;;;;;;26.42;14.15;;;;;;;-0.73;100.00;101632.72;4879276;29;20057;-68
2022/01/16 04:25:27;;;;;;;29.83;14.57;;;;;;;-0.77;100.00;101625.19;4878923;29;20049;-67
2022/01/16 04:27:55;;;;;;;32.50;15.60;;;;;;;-0.79;100.00;101627.25;4879065;29;20045;-68
2022/01/16 04:30:31;;;;;;;35.75;16.10;;;;;;;-0.74;100.00;101623.00;4878826;29;20064;-68
2022/01/16 04:32:59;;;;;;;28.02;15.65;;;;;;;-0.83;100.00;101619.53;4878845;29;20053;-68
2022/01/16 04:35:27;;;;;;;31.38;15.68;;;;;;;-0.78;100.00;101618.97;4878725;29;20052;-68
2022/01/16 04:37:55;;;;;;;32.03;16.45;;;;;;;-0.79;100.00;101611.94;4877615;29;20056;-67
2022/01/16 04:40:41;;;;;;;27.65;15.55;;;;;;;-0.78;100.00;101623.53;4878702;29;20067;-68
2022/01/16 04:46:02;;;;;;;33.42;16.40;;;;;;;-0.86;100.00;101616.34;4878941;29;20060;-68
2022/01/16 04:48:30;;;;;;;28.38;14.70;;;;;;;-0.91;100.00;101616.91;4878977;29;20053;-68
2022/01/16 04:50:58;;;;;;;30.48;17.13;;;;;;;-0.98;100.00;101608.69;4879022;29;20061;-68
2022/01/16 04:53:26;;;;;;;28.83;15.50;;;;;;;-1.05;100.00;101601.50;4878627;29;20538;-68
2022/01/16 04:55:55;;;;;;;34.55;16.40;;;;;;;-0.99;100.00;101611.56;4878432;29;20092;-68
2022/01/16 04:58:22;;;;;;;30.77;16.52;;;;;;;-1.02;100.00;101609.22;4878316;29;20053;-68
2022/01/16 05:00:54;;;;;;;28.77;14.82;;;;;;;-1.02;100.00;101614.59;4878376;29;20504;-68
2022/01/16 05:03:25;;;;;;;22.90;13.10;;;;;;;-1.09;100.00;101604.56;4866106;29;20053;-68
2022/01/16 05:05:54;;;;;;;30.10;15.25;;;;;;;-1.14;100.00;101596.19;4878434;29;20052;-68
2022/01/16 05:08:22;;;;;;;24.25;12.75;;;;;;;-1.12;100.00;101602.22;4877789;29;20056;-68
2022/01/16 05:10:55;;;;;;;25.08;12.75;;;;;;;-1.14;100.00;101589.97;4878653;29;20432;-68
2022/01/16 05:18:56;;;;;;;22.20;10.85;;;;;;;-1.04;100.00;101617.47;4878501;29;20409;-68
2022/01/16 05:21:27;;;;;;;22.55;11.45;;;;;;;-1.10;100.00;101607.44;4878381;29;20057;-68
2022/01/16 05:23:55;;;;;;;24.70;12.38;;;;;;;-1.14;100.00;101606.09;4878206;29;20064;-68
2022/01/16 05:26:28;;;;;;;20.90;11.32;;;;;;;-1.09;100.00;101612.63;4877858;29;20064;-68
2022/01/16 05:28:56;;;;;;;25.52;12.13;;;;;;;-0.93;100.00;101618.91;4878432;29;20053;-68
2022/01/16 05:31:24;;;;;;;24.80;12.07;;;;;;;-1.02;100.00;101617.31;4878415;29;20072;-68
2022/01/16 05:33:52;;;;;;;23.20;12.32;;;;;;;-1.09;100.00;101607.25;4878307;29;20056;-68
2022/01/16 05:36:21;;;;;;;25.88;12.65;;;;;;;-1.09;100.00;101620.69;4877994;29;20488;-68
2022/01/16 05:38:49;;;;;;;24.50;13.43;;;;;;;-1.13;100.00;101619.38;4877947;29;20420;-68
2022/01/16 05:41:18;;;;;;;26.33;12.63;;;;;;;-1.17;100.00;101609.97;4878094;29;20045;-68
2022/01/16 05:43:46;;;;;;;28.02;11.40;;;;;;;-1.20;100.00;101606.81;4878100;29;20049;-68
2022/01/16 05:46:14;;;;;;;23.33;12.57;;;;;;;-1.13;100.00;101624.72;4878082;29;20049;-68
2022/01/16 05:48:43;;;;;;;25.63;11.82;;;;;;;-1.08;100.00;101614.31;4878088;29;20065;-67
2022/01/16 05:51:11;;;;;;;24.00;12.20;;;;;;;-1.09;100.00;101603.72;4877872;29;20385;-68
2022/01/16 05:53:39;;;;;;;22.30;11.68;;;;;;;-1.12;100.00;101607.59;4878064;29;20053;-68
2022/01/16 05:56:07;;;;;;;26.58;11.95;;;;;;;-1.11;100.00;101614.63;4877488;29;20068;-67
2022/01/16 05:58:35;;;;;;;23.10;12.32;;;;;;;-1.09;100.00;101614.47;4877904;29;20065;-68
2022/01/16 06:01:03;;;;;;;24.42;12.98;;;;;;;-1.17;100.00;101607.28;4876694;29;20068;-67
2022/01/16 06:03:31;;;;;;;23.55;12.07;;;;;;;-1.19;100.00;101603.94;4892208;29;20057;-67
2022/01/16 06:05:59;;;;;;;25.65;13.70;;;;;;;-1.05;100.00;101617.63;4877752;29;20056;-67
2022/01/16 06:08:27;;;;;;;28.58;14.30;;;;;;;-0.95;100.00;101619.09;4867608;29;20049;-67
2022/01/16 06:10:55;;;;;;;26.02;13.13;;;;;;;-0.98;100.00;101632.06;4878576;29;20060;-68
2022/01/16 06:13:24;;;;;;;28.88;14.38;;;;;;;-0.99;100.00;101633.06;4877282;29;20057;-68
2022/01/16 06:15:51;;;;;;;27.75;14.32;;;;;;;-1.04;100.00;101640.84;4877535;29;20045;-68
2022/01/16 06:18:19;;;;;;;24.80;14.40;;;;;;;-1.11;100.00;101641.50;4878551;29;20049;-67
2022/01/16 06:20:47;;;;;;;30.42;13.98;;;;;;;-1.16;100.00;101643.91;4881202;29;20041;-67
2022/01/16 06:23:16;;;;;;;29.58;14.07;;;;;;;-1.25;100.00;101632.38;4881623;29;20056;-68
2022/01/16 06:25:44;;;;;;;33.40;14.48;;;;;;;-1.29;100.00;101638.25;4880373;29;20053;-67
2022/01/16 06:28:12;;;;;;;26.60;14.32;;;;;;;-1.28;100.00;101645.31;4880915;29;20048;-68
2022/01/16 06:30:40;;;;;;;31.58;15.73;;;;;;;-1.32;100.00;101647.47;4881027;29;20048;-67
2022/01/16 06:33:09;;;;;;;26.77;14.20;;;;;;;-1.38;100.00;101637.44;4881109;29;20053;-67
2022/01/16 06:35:37;;;;;;;26.17;13.98;;;;;;;-1.40;100.00;101640.31;4879961;29;20052;-67
2022/01/16 06:38:06;;;;;;;27.65;14.05;;;;;;;-1.31;100.00;101641.13;4863544;29;20412;-67
2022/01/16 06:40:35;;;;;;;27.67;13.55;;;;;;;-1.30;100.00;101652.69;4864591;29;20080;-68
2022/01/16 06:43:04;;;;;;;30.65;14.93;;;;;;;-1.36;100.00;101647.00;4880133;29;20061;-67
2022/01/16 06:45:32;;;;;;;27.52;13.90;;;;;;;-1.35;100.00;101659.41;4864516;29;20049;-67
2022/01/16 06:48:00;;;;;;;28.48;16.63;;;;;;;-1.33;100.00;101669.16;4880486;29;20053;-67
2022/01/16 06:50:29;;;;;;;27.02;15.82;;;;;;;-1.19;100.00;101681.03;4863616;29;20057;-68
2022/01/16 06:52:57;;;;;;;29.17;16.20;;;;;;;-1.10;100.00;101680.81;4880002;29;20526;-67
2022/01/16 06:55:25;;;;;;;31.63;17.40;;;;;;;-1.11;100.00;101679.13;4893934;29;20045;-67
2022/01/16 06:57:53;;;;;;;30.40;16.65;;;;;;;-1.23;100.00;101664.41;4880659;29;20053;-67
2022/01/16 07:00:21;;;;;;;31.10;16.10;;;;;;;-1.20;100.00;101661.38;4880636;29;20053;-67
2022/01/16 07:02:48;;;;;;;29.67;15.48;;;;;;;-1.16;100.00;101665.41;4880039;29;20060;-67
2022/01/16 07:05:17;;;;;;;27.88;14.23;;;;;;;-0.97;100.00;101674.03;4880279;29;20432;-67
2022/01/16 07:07:45;;;;;;;22.42;12.35;;;;;;;-0.88;100.00;101675.66;4879001;29;20045;-67
2022/01/16 07:10:13;;;;;;;24.15;12.50;;;;;;;-0.52;100.00;101679.66;4881102;29;20521;-67
2022/01/16 07:12:41;;;;;;;24.90;12.93;;;;;;;-0.57;100.00;101684.72;4880235;29;20523;-67
2022/01/16 07:15:10;;;;;;;23.58;13.88;;;;;;;-0.68;100.00;101683.28;4878928;29;20060;-67
2022/01/16 07:17:38;;;;;;;25.80;13.27;;;;;;;-0.81;100.00;101686.53;4879905;29;20052;-67
2022/01/16 07:20:12;;;;;;;24.13;11.30;;;;;;;-0.80;100.00;101698.16;4879795;29;20053;-67
2022/01/16 07:22:39;;;;;;;22.23;11.10;;;;;;;-0.65;100.00;101695.53;4879827;29;20515;-67
2022/01/16 07:25:08;;;;;;;20.45;10.70;;;;;;;-0.59;100.00;101689.44;4879761;29;20056;-67
2022/01/16 07:27:36;;;;;;;23.30;12.48;;;;;;;-0.55;100.00;101693.44;4879352;29;20045;-69
2022/01/16 07:30:07;;;;;;;19.25;11.38;;;;;;;-0.49;100.00;101684.66;4878909;29;20056;-68
2022/01/16 07:32:35;;;;;;;20.42;11.80;;;;;;;-0.36;100.00;101675.16;4880037;29;20065;-68
2022/01/16 07:35:04;;;;;;;20.35;11.40;;;;;;;-0.19;100.00;101681.25;4877153;29;20056;-69
2022/01/16 07:37:51;;;;;;;18.38;11.10;;;;;;;-0.07;100.00;101690.56;4871181;29;20060;-69
2022/01/16 07:40:22;;;;;;;17.92;10.65;;;;;;;0.08;100.00;101693.31;4879732;29;20063;-69
2022/01/16 07:42:51;;;;;;;20.67;11.25;;;;;;;0.19;100.00;101683.94;4879893;29;20049;-69
2022/01/16 07:45:20;;;;;;;22.67;11.85;;;;;;;0.37;100.00;101680.06;4879287;29;20108;-69
2022/01/16 07:47:48;;;;;;;22.35;11.70;;;;;;;0.51;100.00;101681.09;4878155;29;20067;-69
2022/01/16 07:50:17;;;;;;;20.98;11.57;;;;;;;0.71;100.00;101680.53;4879353;29;20126;-69
2022/01/16 07:52:48;;;;;;;22.10;12.15;;;;;;;0.85;100.00;101689.63;4879634;29;20052;-69
2022/01/16 07:55:17;;;;;;;24.63;13.13;;;;;;;0.88;98.97;101681.19;4860744;29;20049;-69
2022/01/16 07:57:45;;;;;;;21.95;12.32;;;;;;;1.13;98.91;101689.75;4879592;29;20045;-69
2022/01/16 08:00:30;;;;;;;23.63;12.40;;;;;;;1.27;97.48;101679.97;4877997;29;20504;-69
2022/01/16 08:02:59;;;;;;;21.27;11.77;;;;;;;1.40;96.80;101678.44;4868964;29;20053;-69
2022/01/16 08:05:27;;;;;;;20.25;11.15;;;;;;;1.43;95.64;101662.72;4863053;29;20057;-69
2022/01/16 08:07:57;;;;;;;20.17;12.38;;;;;;;1.70;94.98;101670.22;4893204;29;20073;-69
2022/01/16 08:10:25;;;;;;;17.90;11.38;;;;;;;1.79;94.08;101660.13;4879076;29;20052;-69
2022/01/16 08:12:53;;;;;;;21.98;12.75;;;;;;;1.88;93.91;101657.13;4879099;29;20057;-69
2022/01/16 08:15:23;;;;;;;29.02;12.57;;;;;;;2.11;92.76;101653.31;4878648;29;20059;-69
2022/01/16 08:17:52;;;;;;;24.67;13.15;;;;;;;2.09;92.21;101671.59;4877760;29;20045;-69
2022/01/16 08:20:20;;;;;;;22.52;13.20;;;;;;;2.24;91.87;101658.00;4878989;29;20049;-69
2022/01/16 08:22:48;;;;;;;27.05;13.98;;;;;;;2.18;92.38;101657.94;4878993;29;20041;-69
2022/01/16 08:25:16;;;;;;;24.85;13.32;;;;;;;2.35;92.14;101650.38;4878732;29;20515;-69
2022/01/16 08:27:44;;;;;;;25.40;14.00;;;;;;;2.40;92.21;101656.84;4878983;29;20405;-69
2022/01/16 08:30:13;;;;;;;25.20;14.93;;;;;;;2.73;91.47;101657.25;4878590;29;20049;-69
2022/01/16 08:32:43;;;;;;;26.25;14.43;;;;;;;3.01;89.36;101651.75;4878727;29;20055;-69
2022/01/16 08:35:12;;;;;;;25.52;14.70;;;;;;;3.13;89.54;101670.09;4878205;29;20492;-69
2022/01/16 08:37:40;;;;;;;28.05;15.75;;;;;;;3.40;88.22;101665.59;4878606;29;20397;-69
2022/01/16 08:40:09;;;;;;;26.70;15.02;;;;;;;3.62;87.05;101668.94;4877308;29;20052;-69
2022/01/16 08:42:40;;;;;;;26.77;14.80;;;;;;;3.72;88.07;101673.94;4878594;29;20045;-69
2022/01/16 08:45:09;;;;;;;28.33;15.10;;;;;;;3.95;84.81;101663.78;4878082;29;20053;-69
2022/01/16 08:47:38;;;;;;;32.65;16.95;;;;;;;4.03;84.20;101663.56;4877852;29;20041;-69
2022/01/16 08:50:08;;;;;;;28.85;15.63;;;;;;;4.37;83.50;101663.50;4878348;29;20528;-69
2022/01/16 08:52:38;;;;;;;31.70;16.65;;;;;;;4.41;83.16;101670.19;4878357;29;20060;-69
2022/01/16 08:55:08;;;;;;;29.05;16.20;;;;;;;4.87;83.63;101667.53;4877594;29;20390;-69
2022/01/16 08:57:37;;;;;;;28.58;16.00;;;;;;;4.63;81.55;101664.47;4878456;29;20041;-69
2022/01/16 09:00:07;;;;;;;25.90;16.02;;;;;;;4.84;81.83;101679.69;4867007;29;20052;-69
2022/01/16 09:02:36;;;;;;;27.80;15.75;;;;;;;5.14;80.57;101672.84;4877261;29;20045;-69
2022/01/16 09:05:05;;;;;;;26.38;15.50;;;;;;;5.43;79.98;101686.91;4878140;29;20049;-69
2022/01/16 09:07:34;;;;;;;28.10;15.52;;;;;;;5.78;79.06;101678.31;4878258;29;20041;-69
2022/01/16 09:10:03;;;;;;;23.58;14.07;;;;;;;5.92;75.83;101679.06;4878298;29;20049;-66
2022/01/16 09:12:31;;;;;;;28.50;14.75;;;;;;;6.32;78.21;101686.06;4878309;29;20416;-68
2022/01/16 09:14:59;;;;;;;25.50;13.95;;;;;;;6.44;73.97;101680.69;4877946;29;20056;-68
2022/01/16 09:17:27;;;;;;;25.85;14.55;;;;;;;6.42;71.55;101685.53;4870710;29;20513;-68
2022/01/16 09:19:55;;;;;;;24.13;14.45;;;;;;;6.85;73.81;101686.53;4878204;29;20080;-68
2022/01/16 09:22:23;;;;;;;24.90;14.98;;;;;;;6.85;72.08;101681.09;4878015;29;20504;-68
2022/01/16 09:24:51;;;;;;;28.67;16.58;;;;;;;6.56;72.46;101675.34;4878325;29;20049;-69
2022/01/16 09:27:20;;;;;;;25.40;15.15;;;;;;;6.59;73.46;101688.47;4878372;29;20412;-69
2022/01/16 09:29:48;;;;;;;28.08;14.73;;;;;;;6.91;73.22;101693.78;4878624;29;20049;-69
2022/01/16 09:32:17;;;;;;;26.27;15.52;;;;;;;6.83;71.68;101691.38;4876852;29;20057;-69
2022/01/16 09:34:46;;;;;;;26.05;14.52;;;;;;;6.84;70.73;101690.28;4882132;29;20502;-73
2022/01/16 09:37:14;;;;;;;17.27;12.15;;;;;;;6.64;70.55;101685.91;4869689;29;20045;-69
2022/01/16 09:39:43;;;;;;;24.17;13.43;;;;;;;6.92;72.24;101679.13;4855841;29;20056;-70
2022/01/16 09:42:11;;;;;;;23.80;13.23;;;;;;;7.09;70.40;101673.88;4875937;29;20057;-69
2022/01/16 09:44:40;;;;;;;22.73;13.27;;;;;;;6.77;71.77;101689.53;4875709;29;20049;-69
2022/01/16 09:47:10;;;;;;;26.27;14.02;;;;;;;7.10;70.08;101669.28;4873914;29;20060;-70
2022/01/16 09:49:41;;;;;;;21.30;12.27;;;;;;;7.09;69.31;101678.50;4874919;29;20056;-70
2022/01/16 09:52:10;;;;;;;24.02;14.07;;;;;;;7.11;69.23;101674.50;4876152;29;20493;-70
2022/01/16 09:54:40;;;;;;;22.38;12.68;;;;;;;7.13;67.92;101672.38;4875482;29;20499;-68
2022/01/16 09:57:12;;;;;;;23.75;13.15;;;;;;;7.49;67.21;101672.47;4879858;29;20053;-68
2022/01/16 09:59:40;;;;;;;22.38;12.82;;;;;;;7.58;67.31;101674.91;4880270;29;20084;-67
2022/01/16 10:02:11;;;;;;;20.63;11.90;;;;;;;7.91;66.50;101659.91;4872865;29;20060;-68
2022/01/16 10:04:43;;;;;;;20.83;11.48;;;;;;;8.18;63.23;101670.38;4877836;29;20064;-69
2022/01/16 10:07:20;;;;;;;21.30;12.45;;;;;;;8.52;64.95;101661.59;4879137;29;20404;-70
2022/01/16 10:10:14;;;;;;;22.80;12.48;;;;;;;8.20;65.29;101670.94;4875207;29;20048;-68
2022/01/16 10:12:54;;;;;;;23.40;13.27;;;;;;;8.58;64.16;101658.75;4877464;29;20436;-68
2022/01/16 10:15:28;;;;;;;21.80;13.93;;;;;;;8.55;62.54;101658.41;4876931;29;20052;-68
2022/01/16 10:18:01;;;;;;;23.55;13.50;;;;;;;8.46;64.29;101658.72;4877639;29;20045;-68
2022/01/16 10:20:41;;;;;;;23.63;12.50;;;;;;;8.65;62.65;101655.88;4877584;29;20049;-68
2022/01/16 10:23:21;;;;;;;25.48;14.27;;;;;;;8.83;64.16;101652.16;4879940;29;20052;-68
2022/01/16 10:25:50;;;;;;;23.05;14.25;;;;;;;9.07;63.53;101651.25;4878683;29;20048;-68
2022/01/16 10:28:24;;;;;;;22.73;13.25;;;;;;;8.39;64.19;101651.72;4880915;29;20057;-68
2022/01/16 10:30:56;;;;;;;22.67;13.95;;;;;;;8.53;62.87;101645.00;4880187;29;20053;-68
2022/01/16 10:33:33;;;;;;;22.73;13.85;;;;;;;8.27;65.04;101641.66;4879858;29;20057;-68
2022/01/16 10:36:03;;;;;;;21.30;13.48;;;;;;;8.65;63.25;101638.69;4893286;29;20226;-68
2022/01/16 10:38:31;;;;;;;21.40;14.30;;;;;;;8.40;64.91;101635.13;4874810;29;20424;-68
2022/01/16 10:41:00;;;;;;;23.73;13.38;;;;;;;8.42;65.08;101635.72;4893816;29;20076;-68
2022/01/16 10:43:40;;;;;;;23.17;13.30;;;;;;;8.63;63.25;101632.63;4878935;29;20511;-68
2022/01/16 10:46:11;;;;;;;24.55;14.05;;;;;;;8.95;63.97;101626.72;4879464;29;20041;-68
2022/01/16 10:49:19;;;;;;;21.27;13.40;;;;;;;9.23;62.93;101611.41;4879554;29;20056;-68
2022/01/16 10:52:06;;;;;;;24.58;12.57;;;;;;;9.44;61.65;101609.03;4879877;29;20056;-68
2022/01/16 10:54:39;;;;;;;19.40;12.20;;;;;;;9.70;60.59;101604.00;4879063;29;20060;-69
2022/01/16 10:57:25;;;;;;;22.70;12.48;;;;;;;9.90;59.91;101604.31;4871886;29;20057;-69
2022/01/16 11:00:09;;;;;;;43.55;20.80;;;;;;;10.15;58.55;101586.63;4878846;29;20041;-69
2022/01/16 11:02:39;;;;;;;25.00;12.93;;;;;;;10.19;58.18;101586.94;4880152;29;20056;-68
2022/01/16 11:05:12;;;;;;;19.83;10.82;;;;;;;10.07;56.97;101576.94;4876259;29;20056;-69
2022/01/16 11:07:42;;;;;;;24.05;12.52;;;;;;;10.25;57.75;101571.41;4880022;29;20425;-69
2022/01/16 11:10:28;;;;;;;21.25;11.20;;;;;;;10.19;58.10;101571.38;4879325;29;20052;-69
2022/01/16 11:12:58;;;;;;;17.25;11.40;;;;;;;9.97;59.37;101575.97;4879491;29;20041;-69
2022/01/16 11:15:28;;;;;;;18.48;10.57;;;;;;;9.90;60.91;101563.31;4892719;29;20053;-68
2022/01/16 11:17:56;;;;;;;19.42;12.45;;;;;;;9.66;62.64;101547.09;4879526;29;20049;-68
2022/01/16 11:20:31;;;;;;;25.85;14.00;;;;;;;9.41;65.18;101556.56;4878244;29;20064;-68
2022/01/16 11:23:14;;;;;;;27.77;15.93;;;;;;;9.33;65.21;101547.94;4879716;29;20048;-68
2022/01/16 11:25:44;;;;;;;25.83;15.30;;;;;;;9.10;66.10;101545.09;4878962;29;20057;-68
2022/01/16 11:28:16;;;;;;;23.33;15.80;;;;;;;9.37;65.26;101560.00;4872434;29;20070;-68
2022/01/16 11:30:48;;;;;;;28.85;17.42;;;;;;;9.48;67.41;101561.03;4893495;29;20048;-68
2022/01/16 11:33:25;;;;;;;31.27;17.90;;;;;;;9.49;68.03;101557.22;4877518;29;20423;-68
2022/01/16 11:35:58;;;;;;;36.70;19.70;;;;;;;9.63;69.16;101555.78;4875635;29;20044;-68
2022/01/16 11:38:33;;;;;;;32.75;18.55;;;;;;;9.63;69.12;101535.84;4877964;29;20041;-68
2022/01/16 11:41:04;;;;;;;35.78;19.60;;;;;;;9.66;68.31;101551.72;4878522;29;20431;-68
2022/01/16 11:43:35;;;;;;;31.55;19.92;;;;;;;9.68;67.98;101542.22;4879154;29;20056;-68
2022/01/16 11:46:14;;;;;;;30.85;20.15;;;;;;;9.95;69.80;101536.03;4893664;29;20048;-68
2022/01/16 11:48:55;;;;;;;33.70;20.20;;;;;;;9.86;69.13;101544.91;4878652;29;20048;-68
2022/01/16 11:51:39;;;;;;;32.58;20.80;;;;;;;10.01;70.28;101536.94;4879221;29;20465;-68
2022/01/16 11:54:26;;;;;;;30.83;20.13;;;;;;;9.99;69.18;101527.31;4878346;29;20053;-68
2022/01/16 11:57:05;;;;;;;31.55;19.00;;;;;;;10.48;67.04;101523.88;4879131;29;20056;-68
2022/01/16 11:59:33;;;;;;;30.63;16.63;;;;;;;10.46;63.67;101532.31;4878321;29;20386;-68
2022/01/16 12:02:07;;;;;;;24.17;12.15;;;;;;;10.64;58.86;101527.59;4878467;29;20059;-68
2022/01/16 12:04:38;;;;;;;;;;;;;;;10.54;57.26;101519.25;4879452;29;20068;-68
2022/01/16 12:07:12;;;;;;;20.67;10.80;;;;;;;10.86;55.64;101518.53;4878951;29;19934;-68